createdAt,value
2022-07-28T00:00:58.037Z,100.00
2022-07-28T00:02:00.209Z,100.00
2022-07-28T00:03:02.431Z,100.00
2022-07-28T00:04:04.505Z,100.00
2022-07-28T00:05:06.784Z,100.00
2022-07-28T00:06:09.725Z,100.00
2022-07-28T00:07:11.992Z,100.00
2022-07-28T00:08:13.972Z,100.00
2022-07-28T00:09:15.936Z,100.00
2022-07-28T00:10:17.907Z,100.00
2022-07-28T00:11:19.933Z,100.00
2022-07-28T00:12:21.970Z,100.00
2022-07-28T00:13:23.953Z,100.00
2022-07-28T00:14:26.064Z,100.00
2022-07-28T00:15:28.102Z,100.00
2022-07-28T00:16:30.167Z,100.00
2022-07-28T00:17:32.460Z,100.00
2022-07-28T00:18:34.422Z,100.00
2022-07-28T00:19:36.415Z,100.00
2022-07-28T00:20:38.396Z,100.00
2022-07-28T00:21:40.416Z,100.00
2022-07-28T00:22:43.090Z,100.00
2022-07-28T00:23:45.088Z,100.00
2022-07-28T00:24:47.097Z,100.00
2022-07-28T00:25:51.224Z,100.00
2022-07-28T00:26:53.353Z,100.00
2022-07-28T00:27:55.309Z,100.00
2022-07-28T00:28:57.294Z,100.00
2022-07-28T00:29:59.265Z,100.00
2022-07-28T00:31:05.785Z,100.00
2022-07-28T00:32:12.399Z,100.00
2022-07-28T00:33:14.648Z,100.00
2022-07-28T00:34:16.984Z,100.00
2022-07-28T00:35:25.204Z,100.00
2022-07-28T00:36:33.159Z,100.00
2022-07-28T00:37:35.163Z,100.00
2022-07-28T00:38:37.333Z,100.00
2022-07-28T00:39:43.809Z,100.00
2022-07-28T00:41:04.206Z,100.00
2022-07-28T00:42:06.276Z,100.00
2022-07-28T00:43:08.223Z,100.00
2022-07-28T00:44:10.709Z,100.00
2022-07-28T00:45:12.910Z,100.00
2022-07-28T00:46:15.840Z,100.00
2022-07-28T00:47:20.039Z,100.00
2022-07-28T00:48:22.047Z,100.00
2022-07-28T00:49:24.190Z,100.00
2022-07-28T00:50:26.210Z,100.00
2022-07-28T00:51:28.756Z,100.00
2022-07-28T00:52:30.777Z,100.00
2022-07-28T00:53:32.755Z,100.00
2022-07-28T00:54:36.961Z,100.00
2022-07-28T00:56:05.353Z,100.00
2022-07-28T00:57:01.358Z,100.00
2022-07-28T00:58:03.339Z,100.00
2022-07-28T00:59:05.359Z,100.00
2022-07-28T01:00:07.758Z,100.00
2022-07-28T01:01:10.630Z,100.00
2022-07-28T01:02:13.942Z,100.00
2022-07-28T01:03:16.116Z,100.00
2022-07-28T01:04:18.721Z,100.00
2022-07-28T01:05:43.116Z,100.00
2022-07-28T01:06:49.075Z,100.00
2022-07-28T01:07:53.947Z,100.00
2022-07-28T01:08:58.880Z,100.00
2022-07-28T01:10:08.773Z,100.00
2022-07-28T01:11:16.614Z,100.00
2022-07-28T01:12:25.538Z,100.00
2022-07-28T01:13:47.790Z,100.00
2022-07-28T01:14:52.435Z,100.00
2022-07-28T01:15:57.261Z,100.00
2022-07-28T01:17:05.006Z,100.00
2022-07-28T01:18:11.004Z,100.00
2022-07-28T01:19:31.710Z,100.00
2022-07-28T01:20:33.663Z,100.00
2022-07-28T01:21:37.869Z,100.00
2022-07-28T01:22:58.681Z,100.00
2022-07-28T01:24:14.205Z,100.00
2022-07-28T01:25:16.371Z,100.00
2022-07-28T01:26:30.542Z,100.00
2022-07-28T01:27:38.292Z,100.00
2022-07-28T01:28:40.230Z,100.00
2022-07-28T01:29:54.135Z,100.00
2022-07-28T01:31:02.450Z,100.00
2022-07-28T01:32:10.748Z,100.00
2022-07-28T01:33:17.295Z,100.00
2022-07-28T01:34:23.592Z,100.00
2022-07-28T01:35:27.858Z,100.00
2022-07-28T01:36:33.080Z,100.00
2022-07-28T01:37:39.540Z,100.00
2022-07-28T01:38:42.649Z,100.00
2022-07-28T01:39:45.699Z,100.00
2022-07-28T01:40:48.266Z,100.00
2022-07-28T01:41:53.272Z,100.00
2022-07-28T01:42:57.051Z,100.00
2022-07-28T01:44:01.084Z,100.00
2022-07-28T01:45:04.187Z,100.00
2022-07-28T01:46:06.765Z,100.00
2022-07-28T01:47:09.459Z,100.00
2022-07-28T01:48:12.150Z,100.00
2022-07-28T01:49:14.279Z,100.00
2022-07-28T01:50:18.121Z,100.00
2022-07-28T01:51:20.962Z,100.00
2022-07-28T01:52:23.531Z,100.00
2022-07-28T01:53:26.183Z,100.00
2022-07-28T01:54:30.514Z,100.00
2022-07-28T01:55:34.090Z,100.00
2022-07-28T01:56:36.803Z,100.00
2022-07-28T01:57:39.059Z,100.00
2022-07-28T01:58:43.447Z,100.00
2022-07-28T01:59:45.545Z,100.00
2022-07-28T02:00:51.274Z,100.00
2022-07-28T02:01:54.489Z,100.00
2022-07-28T02:02:57.147Z,100.00
2022-07-28T02:04:00.270Z,100.00
2022-07-28T02:05:03.229Z,100.00
2022-07-28T02:06:06.369Z,100.00
2022-07-28T02:07:08.917Z,100.00
2022-07-28T02:08:12.210Z,100.00
2022-07-28T02:09:14.320Z,100.00
2022-07-28T02:10:17.984Z,100.00
2022-07-28T02:11:38.951Z,100.00
2022-07-28T02:12:43.373Z,100.00
2022-07-28T02:13:46.819Z,100.00
2022-07-28T02:14:49.569Z,100.00
2022-07-28T02:15:52.971Z,100.00
2022-07-28T02:16:58.989Z,100.00
2022-07-28T02:18:02.450Z,100.00
2022-07-28T02:19:05.510Z,100.00
2022-07-28T02:20:09.532Z,100.00
2022-07-28T02:21:12.278Z,100.00
2022-07-28T02:22:15.094Z,100.00
2022-07-28T02:23:17.115Z,100.00
2022-07-28T02:24:21.196Z,100.00
2022-07-28T02:25:23.365Z,100.00
2022-07-28T02:26:32.162Z,100.00
2022-07-28T02:27:36.453Z,100.00
2022-07-28T02:28:42.942Z,100.00
2022-07-28T02:29:51.209Z,100.00
2022-07-28T02:31:16.212Z,100.00
2022-07-28T02:32:33.076Z,100.00
2022-07-28T02:33:59.641Z,100.00
2022-07-28T02:35:04.695Z,100.00
2022-07-28T02:36:20.150Z,100.00
2022-07-28T02:37:23.200Z,100.00
2022-07-28T02:38:30.010Z,100.00
2022-07-28T02:39:39.678Z,100.00
2022-07-28T02:40:44.210Z,100.00
2022-07-28T02:41:49.224Z,100.00
2022-07-28T02:42:52.473Z,100.00
2022-07-28T02:43:58.051Z,100.00
2022-07-28T02:45:01.685Z,100.00
2022-07-28T02:46:06.540Z,100.00
2022-07-28T02:47:12.402Z,100.00
2022-07-28T02:48:17.401Z,100.00
2022-07-28T02:49:21.626Z,100.00
2022-07-28T02:50:26.205Z,100.00
2022-07-28T02:51:29.234Z,100.00
2022-07-28T02:52:32.925Z,100.00
2022-07-28T02:53:35.359Z,100.00
2022-07-28T02:54:38.117Z,100.00
2022-07-28T02:55:40.401Z,100.00
2022-07-28T02:56:42.694Z,100.00
2022-07-28T02:57:57.199Z,100.00
2022-07-28T02:58:59.966Z,100.00
2022-07-28T03:00:02.431Z,100.00
2022-07-28T03:01:04.749Z,100.00
2022-07-28T03:02:08.045Z,100.00
2022-07-28T03:03:10.715Z,100.00
2022-07-28T03:04:14.975Z,100.00
2022-07-28T03:05:17.684Z,100.00
2022-07-28T03:06:20.313Z,100.00
2022-07-28T03:07:31.953Z,100.00
2022-07-28T03:08:34.005Z,100.00
2022-07-28T03:09:39.820Z,100.00
2022-07-28T03:10:41.945Z,100.00
2022-07-28T03:11:53.239Z,100.00
2022-07-28T03:12:57.058Z,100.00
2022-07-28T03:13:59.006Z,100.00
2022-07-28T03:15:03.918Z,100.00
2022-07-28T03:16:06.417Z,100.00
2022-07-28T03:17:08.650Z,100.00
2022-07-28T03:18:10.681Z,100.00
2022-07-28T03:19:12.609Z,100.00
2022-07-28T03:20:14.640Z,100.00
2022-07-28T03:21:16.630Z,100.00
2022-07-28T03:22:18.703Z,100.00
2022-07-28T03:23:21.205Z,100.00
2022-07-28T03:24:24.155Z,100.00
2022-07-28T03:25:39.216Z,100.00
2022-07-28T03:26:42.963Z,100.00
2022-07-28T03:27:46.842Z,100.00
2022-07-28T03:28:51.678Z,100.00
2022-07-28T03:30:04.550Z,100.00
2022-07-28T03:31:09.524Z,100.00
2022-07-28T03:32:12.598Z,100.00
2022-07-28T03:33:14.993Z,100.00
2022-07-28T03:34:17.351Z,100.00
2022-07-28T03:35:19.730Z,100.00
2022-07-28T03:36:24.429Z,100.00
2022-07-28T03:37:53.225Z,100.00
2022-07-28T03:39:00.724Z,100.00
2022-07-28T03:40:04.427Z,100.00
2022-07-28T03:41:08.063Z,100.00
2022-07-28T03:42:11.182Z,100.00
2022-07-28T03:43:14.093Z,100.00
2022-07-28T03:44:26.936Z,100.00
2022-07-28T03:45:31.217Z,100.00
2022-07-28T03:46:33.740Z,100.00
2022-07-28T03:47:35.800Z,100.00
2022-07-28T03:48:37.816Z,100.00
2022-07-28T03:49:39.925Z,100.00
2022-07-28T03:50:42.152Z,100.00
2022-07-28T03:51:44.166Z,100.00
2022-07-28T03:52:46.112Z,100.00
2022-07-28T03:53:48.744Z,100.00
2022-07-28T03:54:50.728Z,100.00
2022-07-28T03:55:53.565Z,100.00
2022-07-28T03:56:55.724Z,100.00
2022-07-28T03:57:58.026Z,100.00
2022-07-28T03:59:00.090Z,100.00
2022-07-28T04:00:06.115Z,100.00
2022-07-28T04:01:13.960Z,100.00
2022-07-28T04:02:15.998Z,100.00
2022-07-28T04:03:35.841Z,100.00
2022-07-28T04:04:40.802Z,100.00
2022-07-28T04:05:42.766Z,100.00
2022-07-28T04:06:44.725Z,100.00
2022-07-28T04:07:47.214Z,100.00
2022-07-28T04:08:49.213Z,100.00
2022-07-28T04:09:51.208Z,100.00
2022-07-28T04:10:53.755Z,100.00
2022-07-28T04:11:55.731Z,100.00
2022-07-28T04:12:59.641Z,100.00
2022-07-28T04:14:01.640Z,100.00
2022-07-28T04:15:03.720Z,100.00
2022-07-28T04:16:06.902Z,100.00
2022-07-28T04:17:09.168Z,100.00
2022-07-28T04:18:11.801Z,100.00
2022-07-28T04:19:14.457Z,100.00
2022-07-28T04:20:17.612Z,100.00
2022-07-28T04:21:19.627Z,100.00
2022-07-28T04:22:21.602Z,100.00
2022-07-28T04:23:24.142Z,100.00
2022-07-28T04:24:26.177Z,100.00
2022-07-28T04:25:28.433Z,100.00
2022-07-28T04:26:30.392Z,100.00
2022-07-28T04:27:32.389Z,100.00
2022-07-28T04:28:34.376Z,100.00
2022-07-28T04:29:36.447Z,100.00
2022-07-28T04:30:43.972Z,100.00
2022-07-28T04:31:46.859Z,100.00
2022-07-28T04:32:49.528Z,100.00
2022-07-28T04:33:51.483Z,100.00
2022-07-28T04:34:53.449Z,100.00
2022-07-28T04:35:55.507Z,100.00
2022-07-28T04:36:58.388Z,100.00
2022-07-28T04:38:01.105Z,100.00
2022-07-28T04:39:03.363Z,100.00
2022-07-28T04:40:05.970Z,100.00
2022-07-28T04:41:08.085Z,100.00
2022-07-28T04:42:10.034Z,100.00
2022-07-28T04:43:12.021Z,100.00
2022-07-28T04:44:14.278Z,100.00
2022-07-28T04:45:16.871Z,100.00
2022-07-28T04:46:19.219Z,100.00
2022-07-28T04:47:21.769Z,100.00
2022-07-28T04:48:24.212Z,100.00
2022-07-28T04:49:26.209Z,100.00
2022-07-28T04:50:29.995Z,100.00
2022-07-28T04:51:35.685Z,100.00
2022-07-28T04:52:38.362Z,100.00
2022-07-28T04:53:40.434Z,100.00
2022-07-28T04:54:42.412Z,100.00
2022-07-28T04:55:44.716Z,100.00
2022-07-28T04:56:46.684Z,100.00
2022-07-28T04:57:49.656Z,100.00
2022-07-28T04:58:51.651Z,100.00
2022-07-28T04:59:54.440Z,100.00
2022-07-28T05:00:58.865Z,100.00
2022-07-28T05:02:01.375Z,100.00
2022-07-28T05:03:04.284Z,100.00
2022-07-28T05:04:06.416Z,100.00
2022-07-28T05:05:09.844Z,100.00
2022-07-28T05:06:12.020Z,100.00
2022-07-28T05:07:14.034Z,100.00
2022-07-28T05:08:16.020Z,100.00
2022-07-28T05:09:18.207Z,100.00
2022-07-28T05:10:20.682Z,100.00
2022-07-28T05:11:22.652Z,100.00
2022-07-28T05:12:24.635Z,100.00
2022-07-28T05:13:31.848Z,100.00
2022-07-28T05:14:35.856Z,100.00
2022-07-28T05:15:37.830Z,100.00
2022-07-28T05:16:39.905Z,100.00
2022-07-28T05:17:42.544Z,100.00
2022-07-28T05:18:45.033Z,100.00
2022-07-28T05:19:47.084Z,100.00
2022-07-28T05:20:49.033Z,100.00
2022-07-28T05:21:51.099Z,100.00
2022-07-28T05:22:57.338Z,100.00
2022-07-28T05:23:59.278Z,100.00
2022-07-28T05:25:01.237Z,100.00
2022-07-28T05:26:04.631Z,100.00
2022-07-28T05:27:06.653Z,100.00
2022-07-28T05:28:08.671Z,100.00
2022-07-28T05:29:10.734Z,100.00
2022-07-28T05:30:13.471Z,100.00
2022-07-28T05:31:15.522Z,100.00
2022-07-28T05:32:18.124Z,100.00
2022-07-28T05:33:20.303Z,100.00
2022-07-28T05:34:22.338Z,100.00
2022-07-28T05:35:24.394Z,100.00
2022-07-28T05:36:26.901Z,100.00
2022-07-28T05:37:29.173Z,100.00
2022-07-28T05:38:31.587Z,100.00
2022-07-28T05:39:33.614Z,100.00
2022-07-28T05:40:35.545Z,100.00
2022-07-28T05:41:37.792Z,100.00
2022-07-28T05:42:40.714Z,100.00
2022-07-28T05:43:42.734Z,100.00
2022-07-28T05:44:44.744Z,100.00
2022-07-28T05:45:47.395Z,100.00
2022-07-28T05:46:49.518Z,100.00
2022-07-28T05:47:52.599Z,100.00
2022-07-28T05:48:54.947Z,100.00
2022-07-28T05:50:00.995Z,100.00
2022-07-28T05:51:03.053Z,100.00
2022-07-28T05:52:05.109Z,100.00
2022-07-28T05:53:07.108Z,100.00
2022-07-28T05:54:09.278Z,100.00
2022-07-28T05:55:12.154Z,100.00
2022-07-28T05:56:14.202Z,100.00
2022-07-28T05:57:16.222Z,100.00
2022-07-28T05:58:21.640Z,100.00
2022-07-28T05:59:23.592Z,100.00
2022-07-28T06:00:25.756Z,100.00
2022-07-28T06:01:27.780Z,100.00
2022-07-28T06:02:29.904Z,100.00
2022-07-28T06:03:34.256Z,100.00
2022-07-28T06:04:39.080Z,100.00
2022-07-28T06:05:59.440Z,100.00
2022-07-28T06:07:03.047Z,97.90
2022-07-28T06:08:05.158Z,98.01
2022-07-28T06:09:07.164Z,98.44
2022-07-28T06:10:09.320Z,98.07
2022-07-28T06:11:21.622Z,95.12
2022-07-28T06:12:24.876Z,97.03
2022-07-28T06:13:27.314Z,96.73
2022-07-28T06:14:29.285Z,96.99
2022-07-28T06:15:31.272Z,96.06
2022-07-28T06:16:33.311Z,94.56
2022-07-28T06:17:35.487Z,91.92
2022-07-28T06:18:37.521Z,86.46
2022-07-28T06:19:39.469Z,86.52
2022-07-28T06:20:41.469Z,87.61
2022-07-28T06:21:43.529Z,87.30
2022-07-28T06:22:46.631Z,87.48
2022-07-28T06:23:48.655Z,88.11
2022-07-28T06:24:50.631Z,86.48
2022-07-28T06:25:52.937Z,85.44
2022-07-28T06:26:55.556Z,85.36
2022-07-28T06:27:59.518Z,82.61
2022-07-28T06:29:01.481Z,82.95
2022-07-28T06:30:03.614Z,80.41
2022-07-28T06:31:05.613Z,80.32
2022-07-28T06:32:07.707Z,80.02
2022-07-28T06:33:13.912Z,80.32
2022-07-28T06:34:18.947Z,76.39
2022-07-28T06:35:25.197Z,75.34
2022-07-28T06:36:27.182Z,74.64
2022-07-28T06:37:29.134Z,74.26
2022-07-28T06:38:32.103Z,72.12
2022-07-28T06:39:34.069Z,71.26
2022-07-28T06:40:36.177Z,68.62
2022-07-28T06:41:41.548Z,67.97
2022-07-28T06:42:44.179Z,68.96
2022-07-28T06:43:46.431Z,68.90
2022-07-28T06:44:58.783Z,68.50
2022-07-28T06:46:01.113Z,67.89
2022-07-28T06:47:03.190Z,66.39
2022-07-28T06:48:05.303Z,65.58
2022-07-28T06:49:07.560Z,67.60
2022-07-28T06:50:26.017Z,65.32
2022-07-28T06:51:29.361Z,65.42
2022-07-28T06:52:32.024Z,65.28
2022-07-28T06:53:34.737Z,64.08
2022-07-28T06:54:37.180Z,63.49
2022-07-28T06:55:39.280Z,62.12
2022-07-28T06:56:43.584Z,62.76
2022-07-28T06:57:51.510Z,61.89
2022-07-28T06:58:53.789Z,62.07
2022-07-28T06:59:55.872Z,62.65
2022-07-28T07:00:58.062Z,62.69
2022-07-28T07:02:01.896Z,60.38
2022-07-28T07:03:04.056Z,58.57
2022-07-28T07:04:08.249Z,58.09
2022-07-28T07:05:11.507Z,58.09
2022-07-28T07:06:13.539Z,56.90
2022-07-28T07:07:17.070Z,54.50
2022-07-28T07:08:20.848Z,54.97
2022-07-28T07:09:23.172Z,55.28
2022-07-28T07:10:25.322Z,56.84
2022-07-28T07:11:27.381Z,56.25
2022-07-28T07:12:29.432Z,55.91
2022-07-28T07:13:32.890Z,55.21
2022-07-28T07:14:35.152Z,52.04
2022-07-28T07:15:37.196Z,51.49
2022-07-28T07:16:39.323Z,53.14
2022-07-28T07:17:42.120Z,53.02
2022-07-28T07:18:44.225Z,50.89
2022-07-28T07:19:46.260Z,49.54
2022-07-28T07:20:49.043Z,48.47
2022-07-28T07:21:51.141Z,46.80
2022-07-28T07:22:53.238Z,46.83
2022-07-28T07:23:55.574Z,47.32
2022-07-28T07:24:57.991Z,46.71
2022-07-28T07:26:00.252Z,47.40
2022-07-28T07:27:02.407Z,46.84
2022-07-28T07:28:04.658Z,46.58
2022-07-28T07:29:07.374Z,47.43
2022-07-28T07:30:10.201Z,47.01
2022-07-28T07:31:12.324Z,45.85
2022-07-28T07:32:14.391Z,46.62
2022-07-28T07:33:16.579Z,47.24
2022-07-28T07:34:18.731Z,47.92
2022-07-28T07:35:21.591Z,49.81
2022-07-28T07:36:23.735Z,50.94
2022-07-28T07:37:25.945Z,49.58
2022-07-28T07:38:29.356Z,49.24
2022-07-28T07:39:31.975Z,49.63
2022-07-28T07:40:34.013Z,50.52
2022-07-28T07:41:36.188Z,49.24
2022-07-28T07:42:40.172Z,49.84
2022-07-28T07:43:45.876Z,48.46
2022-07-28T07:44:50.112Z,48.89
2022-07-28T07:45:52.371Z,47.90
2022-07-28T07:46:54.580Z,48.51
2022-07-28T07:47:56.665Z,47.64
2022-07-28T07:48:58.726Z,43.30
2022-07-28T07:50:04.149Z,43.98
2022-07-28T07:51:08.815Z,42.75
2022-07-28T07:52:17.470Z,42.03
2022-07-28T07:53:19.610Z,41.40
2022-07-28T07:54:21.877Z,42.27
2022-07-28T07:55:24.205Z,42.36
2022-07-28T07:56:26.443Z,41.57
2022-07-28T07:57:29.853Z,41.20
2022-07-28T07:58:31.932Z,40.23
2022-07-28T07:59:34.109Z,40.05
2022-07-28T08:00:36.095Z,40.15
2022-07-28T08:01:40.525Z,40.82
2022-07-28T08:02:43.029Z,41.72
2022-07-28T08:03:46.257Z,39.96
2022-07-28T08:04:52.622Z,39.69
2022-07-28T08:05:56.770Z,39.82
2022-07-28T08:06:59.657Z,40.77
2022-07-28T08:08:02.413Z,39.77
2022-07-28T08:09:04.416Z,40.12
2022-07-28T08:10:07.211Z,42.68
2022-07-28T08:11:11.193Z,44.05
2022-07-28T08:12:13.307Z,45.18
2022-07-28T08:13:15.317Z,44.58
2022-07-28T08:14:17.977Z,45.86
2022-07-28T08:15:20.414Z,46.83
2022-07-28T08:16:22.519Z,48.47
2022-07-28T08:17:26.129Z,49.13
2022-07-28T08:18:28.494Z,48.44
2022-07-28T08:19:30.541Z,46.82
2022-07-28T08:20:32.540Z,45.81
2022-07-28T08:21:34.581Z,45.45
2022-07-28T08:22:46.993Z,44.95
2022-07-28T08:23:48.983Z,46.55
2022-07-28T08:24:51.167Z,46.20
2022-07-28T08:25:53.611Z,46.93
2022-07-28T08:26:55.828Z,46.57
2022-07-28T08:27:57.900Z,46.52
2022-07-28T08:28:59.901Z,45.51
2022-07-28T08:30:02.869Z,46.63
2022-07-28T08:31:04.965Z,46.98
2022-07-28T08:32:07.327Z,48.43
2022-07-28T08:33:09.283Z,52.86
2022-07-28T08:34:31.478Z,54.72
2022-07-28T08:35:35.306Z,56.86
2022-07-28T08:36:37.684Z,56.61
2022-07-28T08:37:40.006Z,57.18
2022-07-28T08:38:42.080Z,56.66
2022-07-28T08:39:44.075Z,57.38
2022-07-28T08:40:48.499Z,57.10
2022-07-28T08:41:59.804Z,57.82
2022-07-28T08:43:04.763Z,58.59
2022-07-28T08:44:08.398Z,59.13
2022-07-28T08:45:10.930Z,57.40
2022-07-28T08:46:13.671Z,58.02
2022-07-28T08:47:16.093Z,57.98
2022-07-28T08:48:19.822Z,58.36
2022-07-28T08:49:22.094Z,55.75
2022-07-28T08:50:24.701Z,57.80
2022-07-28T08:51:27.408Z,57.72
2022-07-28T08:52:29.846Z,58.68
2022-07-28T08:53:32.097Z,57.42
2022-07-28T08:54:34.408Z,57.33
2022-07-28T08:55:36.892Z,58.56
2022-07-28T08:56:41.011Z,57.48
2022-07-28T08:57:50.214Z,58.94
2022-07-28T08:58:52.387Z,58.62
2022-07-28T08:59:54.800Z,58.85
2022-07-28T09:00:56.859Z,58.65
2022-07-28T09:01:59.032Z,57.88
2022-07-28T09:03:03.256Z,57.81
2022-07-28T09:04:06.914Z,58.14
2022-07-28T09:05:09.401Z,58.46
2022-07-28T09:06:11.861Z,57.40
2022-07-28T09:07:14.900Z,57.32
2022-07-28T09:08:19.736Z,57.04
2022-07-28T09:09:22.452Z,57.28
2022-07-28T09:10:24.590Z,56.40
2022-07-28T09:11:29.793Z,55.80
2022-07-28T09:12:35.438Z,55.52
2022-07-28T09:13:38.341Z,55.01
2022-07-28T09:14:40.997Z,56.52
2022-07-28T09:15:46.146Z,56.63
2022-07-28T09:16:48.470Z,56.95
2022-07-28T09:17:50.455Z,56.47
2022-07-28T09:18:52.448Z,56.30
2022-07-28T09:19:54.510Z,56.10
2022-07-28T09:20:56.577Z,56.60
2022-07-28T09:21:58.925Z,56.99
2022-07-28T09:23:01.938Z,56.47
2022-07-28T09:24:04.037Z,58.07
2022-07-28T09:25:17.863Z,57.92
2022-07-28T09:26:19.912Z,57.34
2022-07-28T09:27:21.873Z,55.79
2022-07-28T09:28:24.609Z,55.65
2022-07-28T09:29:26.597Z,55.88
2022-07-28T09:30:32.677Z,56.56
2022-07-28T09:31:34.837Z,56.76
2022-07-28T09:32:36.853Z,58.90
2022-07-28T09:33:43.076Z,58.99
2022-07-28T09:34:46.886Z,57.39
2022-07-28T09:35:53.330Z,56.96
2022-07-28T09:36:55.344Z,57.66
2022-07-28T09:38:00.334Z,56.67
2022-07-28T09:39:02.744Z,56.34
2022-07-28T09:40:11.897Z,56.00
2022-07-28T09:41:14.602Z,55.91
2022-07-28T09:42:20.098Z,55.94
2022-07-28T09:43:34.969Z,54.70
2022-07-28T09:44:37.002Z,53.67
2022-07-28T09:45:39.128Z,53.25
2022-07-28T09:46:41.215Z,51.03
2022-07-28T09:47:43.580Z,49.49
2022-07-28T09:48:49.105Z,49.25
2022-07-28T09:49:51.860Z,49.41
2022-07-28T09:51:09.113Z,49.37
2022-07-28T09:52:11.174Z,45.39
2022-07-28T09:53:23.377Z,44.97
2022-07-28T09:54:25.578Z,44.91
2022-07-28T09:55:27.526Z,44.88
2022-07-28T09:56:31.128Z,44.20
2022-07-28T09:57:34.316Z,43.81
2022-07-28T09:58:40.774Z,43.60
2022-07-28T09:59:48.422Z,42.57
2022-07-28T10:01:03.491Z,41.35
2022-07-28T10:02:05.908Z,41.72
2022-07-28T10:03:10.233Z,40.99
2022-07-28T10:04:12.856Z,41.77
2022-07-28T10:05:16.313Z,41.96
2022-07-28T10:06:24.337Z,40.02
2022-07-28T10:07:28.513Z,39.47
2022-07-28T10:08:41.999Z,38.76
2022-07-28T10:09:44.543Z,38.42
2022-07-28T10:10:59.488Z,39.90
2022-07-28T10:12:13.611Z,40.36
2022-07-28T10:13:15.638Z,39.53
2022-07-28T10:14:21.435Z,40.12
2022-07-28T10:15:48.218Z,39.77
2022-07-28T10:16:53.512Z,37.56
2022-07-28T10:17:55.607Z,37.14
2022-07-28T10:18:59.479Z,37.75
2022-07-28T10:20:03.365Z,36.51
2022-07-28T10:21:07.967Z,36.78
2022-07-28T10:22:10.325Z,35.23
2022-07-28T10:23:12.806Z,34.57
2022-07-28T10:24:20.809Z,34.07
2022-07-28T10:25:24.083Z,34.24
2022-07-28T10:26:30.924Z,33.36
2022-07-28T10:27:33.374Z,32.57
2022-07-28T10:28:41.946Z,32.20
2022-07-28T10:29:45.602Z,31.61
2022-07-28T10:30:49.354Z,32.79
2022-07-28T10:31:52.480Z,33.76
2022-07-28T10:32:55.990Z,34.41
2022-07-28T10:33:59.181Z,33.63
2022-07-28T10:35:04.998Z,32.78
2022-07-28T10:36:07.318Z,32.88
2022-07-28T10:37:10.372Z,32.10
2022-07-28T10:38:12.857Z,32.36
2022-07-28T10:39:18.654Z,32.96
2022-07-28T10:40:26.698Z,33.00
2022-07-28T10:41:32.089Z,33.95
2022-07-28T10:42:35.489Z,34.73
2022-07-28T10:43:42.971Z,34.64
2022-07-28T10:44:48.035Z,34.53
2022-07-28T10:46:07.519Z,33.94
2022-07-28T10:47:18.124Z,36.46
2022-07-28T10:48:23.645Z,36.38
2022-07-28T10:49:32.688Z,35.11
2022-07-28T10:50:35.531Z,34.33
2022-07-28T10:52:00.186Z,34.13
2022-07-28T10:53:04.631Z,33.09
2022-07-28T10:54:28.202Z,32.44
2022-07-28T10:55:33.289Z,31.69
2022-07-28T10:56:45.948Z,31.63
2022-07-28T10:58:10.891Z,32.41
2022-07-28T10:59:32.580Z,33.56
2022-07-28T11:00:54.609Z,32.34
2022-07-28T11:01:58.006Z,31.63
2022-07-28T11:03:02.163Z,30.95
2022-07-28T11:04:34.305Z,30.95
2022-07-28T11:05:39.354Z,31.64
2022-07-28T11:06:45.819Z,31.25
2022-07-28T11:07:47.851Z,30.04
2022-07-28T11:08:52.503Z,28.49
2022-07-28T11:10:14.552Z,28.14
2022-07-28T11:11:36.506Z,28.86
2022-07-28T11:12:49.043Z,28.62
2022-07-28T11:13:52.516Z,27.72
2022-07-28T11:14:54.730Z,27.72
2022-07-28T11:16:18.642Z,27.49
2022-07-28T11:17:24.278Z,26.52
2022-07-28T11:18:26.779Z,26.22
2022-07-28T11:19:40.348Z,25.98
2022-07-28T11:20:52.661Z,24.96
2022-07-28T11:22:13.084Z,25.11
2022-07-28T11:23:35.773Z,24.25
2022-07-28T11:25:19.648Z,24.62
2022-07-28T11:26:23.567Z,24.22
2022-07-28T11:27:46.017Z,23.99
2022-07-28T11:28:57.256Z,24.61
2022-07-28T11:29:59.200Z,25.00
2022-07-28T11:31:01.360Z,24.93
2022-07-28T11:32:03.939Z,25.10
2022-07-28T11:33:07.143Z,24.54
2022-07-28T11:34:09.224Z,24.20
2022-07-28T11:35:11.324Z,23.85
2022-07-28T11:36:13.300Z,25.21
2022-07-28T11:37:15.532Z,25.04
2022-07-28T11:38:17.762Z,25.49
2022-07-28T11:39:23.293Z,25.88
2022-07-28T11:40:44.435Z,26.62
2022-07-28T11:41:46.447Z,28.10
2022-07-28T11:42:48.430Z,27.61
2022-07-28T11:43:51.087Z,29.22
2022-07-28T11:44:54.410Z,29.65
2022-07-28T11:46:02.442Z,30.78
2022-07-28T11:47:21.316Z,30.58
2022-07-28T11:48:23.458Z,31.32
2022-07-28T11:49:27.610Z,30.40
2022-07-28T11:50:30.414Z,30.78
2022-07-28T11:51:38.803Z,30.96
2022-07-28T11:52:54.485Z,30.16
2022-07-28T11:53:56.568Z,29.99
2022-07-28T11:54:58.652Z,30.61
2022-07-28T11:56:03.330Z,31.25
2022-07-28T11:57:07.614Z,31.24
2022-07-28T11:58:23.193Z,30.35
2022-07-28T11:59:36.598Z,31.05
2022-07-28T12:00:39.806Z,30.85
2022-07-28T12:01:51.084Z,30.89
2022-07-28T12:02:53.251Z,30.08
2022-07-28T12:03:56.768Z,29.30
2022-07-28T12:05:04.253Z,28.69
2022-07-28T12:06:06.885Z,28.24
2022-07-28T12:07:09.947Z,27.57
2022-07-28T12:08:11.942Z,25.96
2022-07-28T12:09:14.861Z,25.29
2022-07-28T12:10:43.902Z,26.13
2022-07-28T12:11:53.949Z,25.03
2022-07-28T12:12:57.304Z,24.99
2022-07-28T12:14:02.851Z,25.29
2022-07-28T12:15:07.371Z,26.17
2022-07-28T12:16:09.834Z,25.32
2022-07-28T12:17:12.327Z,25.97
2022-07-28T12:18:14.705Z,25.71
2022-07-28T12:19:17.704Z,25.94
2022-07-28T12:20:20.717Z,27.18
2022-07-28T12:21:46.553Z,26.59
2022-07-28T12:22:57.913Z,27.88
2022-07-28T12:24:00.534Z,27.75
2022-07-28T12:25:04.444Z,26.90
2022-07-28T12:26:31.394Z,27.52
2022-07-28T12:27:35.169Z,26.05
2022-07-28T12:28:49.008Z,26.36
2022-07-28T12:29:59.947Z,26.00
2022-07-28T12:31:11.830Z,26.65
2022-07-28T12:32:14.331Z,27.80
2022-07-28T12:33:22.267Z,26.50
2022-07-28T12:34:28.552Z,26.99
2022-07-28T12:35:31.487Z,26.66
2022-07-28T12:36:33.960Z,26.70
2022-07-28T12:37:35.957Z,26.15
2022-07-28T12:38:38.094Z,24.91
2022-07-28T12:39:42.667Z,24.71
2022-07-28T12:40:46.364Z,25.27
2022-07-28T12:41:48.400Z,24.25
2022-07-28T12:42:53.728Z,23.69
2022-07-28T12:43:55.892Z,24.50
2022-07-28T12:45:01.178Z,25.01
2022-07-28T12:46:03.717Z,25.35
2022-07-28T12:47:08.167Z,24.50
2022-07-28T12:48:10.590Z,25.73
2022-07-28T12:49:22.282Z,25.63
2022-07-28T12:50:24.634Z,26.77
2022-07-28T12:51:36.985Z,26.29
2022-07-28T12:52:38.944Z,28.43
2022-07-28T12:53:50.766Z,28.46
2022-07-28T12:54:55.785Z,27.51
2022-07-28T12:56:02.416Z,27.47
2022-07-28T12:57:04.788Z,28.14
2022-07-28T12:58:06.903Z,28.93
2022-07-28T12:59:09.512Z,29.74
2022-07-28T13:00:11.727Z,29.52
2022-07-28T13:01:14.233Z,30.23
2022-07-28T13:02:16.999Z,29.52
2022-07-28T13:03:20.569Z,28.74
2022-07-28T13:04:41.714Z,29.93
2022-07-28T13:06:02.567Z,28.83
2022-07-28T13:07:10.900Z,29.57
2022-07-28T13:08:12.948Z,30.36
2022-07-28T13:09:32.604Z,31.83
2022-07-28T13:10:45.290Z,30.83
2022-07-28T13:11:48.064Z,31.79
2022-07-28T13:13:00.546Z,31.97
2022-07-28T13:14:02.576Z,30.33
2022-07-28T13:15:14.315Z,30.22
2022-07-28T13:16:18.177Z,29.97
2022-07-28T13:17:21.502Z,31.29
2022-07-28T13:18:38.355Z,31.84
2022-07-28T13:19:40.365Z,30.99
2022-07-28T13:20:50.183Z,31.72
2022-07-28T13:22:01.679Z,32.12
2022-07-28T13:23:06.130Z,32.60
2022-07-28T13:24:16.519Z,31.93
2022-07-28T13:25:19.173Z,31.51
2022-07-28T13:26:21.475Z,31.72
2022-07-28T13:27:23.702Z,32.60
2022-07-28T13:28:26.731Z,32.56
2022-07-28T13:29:33.431Z,30.60
2022-07-28T13:30:35.501Z,31.55
2022-07-28T13:31:37.771Z,31.89
2022-07-28T13:32:40.104Z,32.33
2022-07-28T13:33:45.524Z,32.14
2022-07-28T13:34:48.007Z,31.76
2022-07-28T13:35:50.790Z,31.56
2022-07-28T13:36:53.246Z,30.67
2022-07-28T13:37:55.310Z,31.05
2022-07-28T13:38:57.425Z,29.74
2022-07-28T13:40:01.921Z,28.91
2022-07-28T13:41:03.889Z,28.55
2022-07-28T13:42:06.521Z,28.72
2022-07-28T13:43:12.496Z,29.14